sensor_id;sensor_type;location;lat;lon;timestamp;temperature;humidity
8557;DHT22;4316;53.840;10.762;2024-01-30T00:01:44;3.80;1.00
8557;DHT22;4316;53.840;10.762;2024-01-30T00:04:09;3.80;1.00
8557;DHT22;4316;53.840;10.762;2024-01-30T00:06:35;3.80;1.00
8557;DHT22;4316;53.840;10.762;2024-01-30T00:09:00;3.80;1.00
8557;DHT22;4316;53.840;10.762;2024-01-30T00:11:26;3.80;1.00
8557;DHT22;4316;53.840;10.762;2024-01-30T00:13:52;3.70;1.00
8557;DHT22;4316;53.840;10.762;2024-01-30T00:16:22;3.60;1.00
8557;DHT22;4316;53.840;10.762;2024-01-30T00:18:53;3.70;1.00
8557;DHT22;4316;53.840;10.762;2024-01-30T00:21:19;3.70;1.00
8557;DHT22;4316;53.840;10.762;2024-01-30T00:23:46;3.80;1.00
8557;DHT22;4316;53.840;10.762;2024-01-30T00:26:11;3.70;1.00
8557;DHT22;4316;53.840;10.762;2024-01-30T00:28:38;3.70;1.00
8557;DHT22;4316;53.840;10.762;2024-01-30T00:31:04;3.70;1.00
8557;DHT22;4316;53.840;10.762;2024-01-30T00:33:30;3.70;1.00
8557;DHT22;4316;53.840;10.762;2024-01-30T00:35:55;3.70;1.00
8557;DHT22;4316;53.840;10.762;2024-01-30T00:38:21;3.70;1.00
8557;DHT22;4316;53.840;10.762;2024-01-30T00:40:47;3.70;1.00
8557;DHT22;4316;53.840;10.762;2024-01-30T00:43:12;3.70;1.00
8557;DHT22;4316;53.840;10.762;2024-01-30T00:45:38;3.60;1.00
8557;DHT22;4316;53.840;10.762;2024-01-30T00:48:04;3.60;1.00
8557;DHT22;4316;53.840;10.762;2024-01-30T00:50:30;3.60;1.00
8557;DHT22;4316;53.840;10.762;2024-01-30T00:52:55;3.50;1.00
8557;DHT22;4316;53.840;10.762;2024-01-30T00:55:21;3.50;1.00
8557;DHT22;4316;53.840;10.762;2024-01-30T00:57:46;3.50;1.00
8557;DHT22;4316;53.840;10.762;2024-01-30T01:00:13;3.50;1.00
8557;DHT22;4316;53.840;10.762;2024-01-30T01:02:42;3.50;1.00
8557;DHT22;4316;53.840;10.762;2024-01-30T01:05:08;3.40;1.00
8557;DHT22;4316;53.840;10.762;2024-01-30T01:07:34;3.40;1.00
8557;DHT22;4316;53.840;10.762;2024-01-30T01:09:59;3.40;1.00
8557;DHT22;4316;53.840;10.762;2024-01-30T01:12:25;3.40;1.00
8557;DHT22;4316;53.840;10.762;2024-01-30T01:14:51;3.30;1.00
8557;DHT22;4316;53.840;10.762;2024-01-30T01:17:16;3.40;1.00
8557;DHT22;4316;53.840;10.762;2024-01-30T01:19:43;3.50;1.00
8557;DHT22;4316;53.840;10.762;2024-01-30T01:22:09;3.50;1.00
8557;DHT22;4316;53.840;10.762;2024-01-30T01:24:36;3.50;1.00
8557;DHT22;4316;53.840;10.762;2024-01-30T01:27:02;3.60;1.00
8557;DHT22;4316;53.840;10.762;2024-01-30T01:29:27;3.60;1.00
8557;DHT22;4316;53.840;10.762;2024-01-30T01:31:59;3.60;1.00
8557;DHT22;4316;53.840;10.762;2024-01-30T01:34:24;3.60;1.00
8557;DHT22;4316;53.840;10.762;2024-01-30T01:36:50;3.60;1.00
8557;DHT22;4316;53.840;10.762;2024-01-30T01:39:17;3.60;1.00
8557;DHT22;4316;53.840;10.762;2024-01-30T01:41:43;3.60;1.00
8557;DHT22;4316;53.840;10.762;2024-01-30T01:44:09;3.60;1.00
8557;DHT22;4316;53.840;10.762;2024-01-30T01:46:35;3.60;1.00
8557;DHT22;4316;53.840;10.762;2024-01-30T01:49:02;3.50;1.00
8557;DHT22;4316;53.840;10.762;2024-01-30T01:51:29;3.30;1.00
8557;DHT22;4316;53.840;10.762;2024-01-30T01:53:56;3.10;1.00
8557;DHT22;4316;53.840;10.762;2024-01-30T01:56:23;3.10;1.00
8557;DHT22;4316;53.840;10.762;2024-01-30T01:58:49;3.20;1.00
8557;DHT22;4316;53.840;10.762;2024-01-30T02:01:19;3.20;1.00
8557;DHT22;4316;53.840;10.762;2024-01-30T02:03:46;3.20;1.00
8557;DHT22;4316;53.840;10.762;2024-01-30T02:06:13;3.10;1.00
8557;DHT22;4316;53.840;10.762;2024-01-30T02:08:39;3.20;1.00
8557;DHT22;4316;53.840;10.762;2024-01-30T02:11:05;3.20;1.00
8557;DHT22;4316;53.840;10.762;2024-01-30T02:13:30;3.20;1.00
8557;DHT22;4316;53.840;10.762;2024-01-30T02:15:56;3.20;1.00
8557;DHT22;4316;53.840;10.762;2024-01-30T02:18:23;3.20;1.00
8557;DHT22;4316;53.840;10.762;2024-01-30T02:20:48;3.20;1.00
8557;DHT22;4316;53.840;10.762;2024-01-30T02:23:16;3.20;1.00
8557;DHT22;4316;53.840;10.762;2024-01-30T02:25:42;3.20;1.00
8557;DHT22;4316;53.840;10.762;2024-01-30T02:28:13;3.30;1.00
8557;DHT22;4316;53.840;10.762;2024-01-30T02:30:46;3.30;1.00
8557;DHT22;4316;53.840;10.762;2024-01-30T02:33:12;3.30;1.00
8557;DHT22;4316;53.840;10.762;2024-01-30T02:35:38;3.30;1.00
8557;DHT22;4316;53.840;10.762;2024-01-30T02:38:03;3.30;1.00
8557;DHT22;4316;53.840;10.762;2024-01-30T02:40:29;3.30;1.00
8557;DHT22;4316;53.840;10.762;2024-01-30T02:42:55;3.40;1.00
8557;DHT22;4316;53.840;10.762;2024-01-30T02:45:21;3.40;1.00
8557;DHT22;4316;53.840;10.762;2024-01-30T02:47:47;3.40;1.00
8557;DHT22;4316;53.840;10.762;2024-01-30T02:50:12;3.40;1.00
8557;DHT22;4316;53.840;10.762;2024-01-30T02:52:38;3.50;1.00
8557;DHT22;4316;53.840;10.762;2024-01-30T02:55:04;3.50;1.00
8557;DHT22;4316;53.840;10.762;2024-01-30T02:57:30;3.40;1.00
8557;DHT22;4316;53.840;10.762;2024-01-30T02:59:55;3.40;1.00
8557;DHT22;4316;53.840;10.762;2024-01-30T03:02:21;3.40;1.00
8557;DHT22;4316;53.840;10.762;2024-01-30T03:04:47;3.40;1.00
8557;DHT22;4316;53.840;10.762;2024-01-30T03:07:12;3.40;1.00
8557;DHT22;4316;53.840;10.762;2024-01-30T03:09:38;3.40;1.00
8557;DHT22;4316;53.840;10.762;2024-01-30T03:12:04;3.40;1.00
8557;DHT22;4316;53.840;10.762;2024-01-30T03:14:31;3.40;1.00
8557;DHT22;4316;53.840;10.762;2024-01-30T03:16:56;3.40;1.00
8557;DHT22;4316;53.840;10.762;2024-01-30T03:19:22;3.40;1.00
8557;DHT22;4316;53.840;10.762;2024-01-30T03:21:47;3.40;1.00
8557;DHT22;4316;53.840;10.762;2024-01-30T03:24:13;3.30;1.00
8557;DHT22;4316;53.840;10.762;2024-01-30T03:26:38;3.30;1.00
8557;DHT22;4316;53.840;10.762;2024-01-30T03:29:04;3.30;1.00
8557;DHT22;4316;53.840;10.762;2024-01-30T03:31:30;3.30;1.00
8557;DHT22;4316;53.840;10.762;2024-01-30T03:33:55;3.30;1.00
8557;DHT22;4316;53.840;10.762;2024-01-30T03:36:21;3.30;1.00
8557;DHT22;4316;53.840;10.762;2024-01-30T03:38:46;3.30;1.00
8557;DHT22;4316;53.840;10.762;2024-01-30T03:41:12;3.30;1.00
8557;DHT22;4316;53.840;10.762;2024-01-30T03:43:37;3.20;1.00
8557;DHT22;4316;53.840;10.762;2024-01-30T03:46:03;3.20;1.00
8557;DHT22;4316;53.840;10.762;2024-01-30T03:48:29;3.20;1.00
8557;DHT22;4316;53.840;10.762;2024-01-30T03:50:55;3.20;1.00
8557;DHT22;4316;53.840;10.762;2024-01-30T03:53:21;3.30;1.00
8557;DHT22;4316;53.840;10.762;2024-01-30T03:55:46;3.30;1.00
8557;DHT22;4316;53.840;10.762;2024-01-30T03:58:12;3.30;1.00
8557;DHT22;4316;53.840;10.762;2024-01-30T04:00:37;3.30;1.00
8557;DHT22;4316;53.840;10.762;2024-01-30T04:03:03;3.30;1.00
8557;DHT22;4316;53.840;10.762;2024-01-30T04:05:29;3.20;1.00
8557;DHT22;4316;53.840;10.762;2024-01-30T04:07:55;3.20;1.00
8557;DHT22;4316;53.840;10.762;2024-01-30T04:10:20;3.20;1.00
8557;DHT22;4316;53.840;10.762;2024-01-30T04:12:46;3.10;1.00
8557;DHT22;4316;53.840;10.762;2024-01-30T04:15:11;3.10;1.00
8557;DHT22;4316;53.840;10.762;2024-01-30T04:17:39;3.10;1.00
8557;DHT22;4316;53.840;10.762;2024-01-30T04:20:05;3.10;1.00
8557;DHT22;4316;53.840;10.762;2024-01-30T04:22:31;3.00;1.00
8557;DHT22;4316;53.840;10.762;2024-01-30T04:24:57;3.00;1.00
8557;DHT22;4316;53.840;10.762;2024-01-30T04:27:22;3.00;1.00
8557;DHT22;4316;53.840;10.762;2024-01-30T04:29:48;2.90;1.00
8557;DHT22;4316;53.840;10.762;2024-01-30T04:32:14;3.00;1.00
8557;DHT22;4316;53.840;10.762;2024-01-30T04:34:39;3.00;1.00
8557;DHT22;4316;53.840;10.762;2024-01-30T04:37:05;3.00;1.00
8557;DHT22;4316;53.840;10.762;2024-01-30T04:39:32;2.90;1.00
8557;DHT22;4316;53.840;10.762;2024-01-30T04:41:58;2.90;1.00
8557;DHT22;4316;53.840;10.762;2024-01-30T04:44:24;3.00;1.00
8557;DHT22;4316;53.840;10.762;2024-01-30T04:46:50;2.90;1.00
8557;DHT22;4316;53.840;10.762;2024-01-30T04:49:15;2.90;1.00
8557;DHT22;4316;53.840;10.762;2024-01-30T04:51:41;3.00;1.00
8557;DHT22;4316;53.840;10.762;2024-01-30T04:54:06;2.90;1.00
8557;DHT22;4316;53.840;10.762;2024-01-30T04:56:32;2.90;1.00
8557;DHT22;4316;53.840;10.762;2024-01-30T04:58:58;2.90;1.00
8557;DHT22;4316;53.840;10.762;2024-01-30T05:01:23;2.90;1.00
8557;DHT22;4316;53.840;10.762;2024-01-30T05:03:49;2.90;1.00
8557;DHT22;4316;53.840;10.762;2024-01-30T05:06:24;2.90;1.00
8557;DHT22;4316;53.840;10.762;2024-01-30T05:08:49;2.90;1.00
8557;DHT22;4316;53.840;10.762;2024-01-30T05:11:15;2.90;1.00
8557;DHT22;4316;53.840;10.762;2024-01-30T05:13:41;2.80;1.00
8557;DHT22;4316;53.840;10.762;2024-01-30T05:16:06;2.80;1.00
8557;DHT22;4316;53.840;10.762;2024-01-30T05:18:32;2.80;1.00
8557;DHT22;4316;53.840;10.762;2024-01-30T05:20:57;2.80;1.00
8557;DHT22;4316;53.840;10.762;2024-01-30T05:23:23;2.80;1.00
8557;DHT22;4316;53.840;10.762;2024-01-30T05:25:48;2.90;1.00
8557;DHT22;4316;53.840;10.762;2024-01-30T05:28:14;2.90;1.00
8557;DHT22;4316;53.840;10.762;2024-01-30T05:30:39;2.80;1.00
8557;DHT22;4316;53.840;10.762;2024-01-30T05:33:05;2.70;1.00
8557;DHT22;4316;53.840;10.762;2024-01-30T05:35:30;2.70;1.00
8557;DHT22;4316;53.840;10.762;2024-01-30T05:37:56;2.70;1.00
8557;DHT22;4316;53.840;10.762;2024-01-30T05:40:22;2.70;1.00
8557;DHT22;4316;53.840;10.762;2024-01-30T05:42:48;2.70;1.00
8557;DHT22;4316;53.840;10.762;2024-01-30T05:45:13;2.80;1.00
8557;DHT22;4316;53.840;10.762;2024-01-30T05:47:39;2.80;1.00
8557;DHT22;4316;53.840;10.762;2024-01-30T05:50:05;2.70;1.00
8557;DHT22;4316;53.840;10.762;2024-01-30T05:52:31;2.60;1.00
8557;DHT22;4316;53.840;10.762;2024-01-30T05:54:56;2.70;1.00
8557;DHT22;4316;53.840;10.762;2024-01-30T05:57:22;2.70;1.00
8557;DHT22;4316;53.840;10.762;2024-01-30T05:59:47;2.70;1.00
8557;DHT22;4316;53.840;10.762;2024-01-30T06:02:13;2.70;1.00
8557;DHT22;4316;53.840;10.762;2024-01-30T06:04:39;2.70;1.00
8557;DHT22;4316;53.840;10.762;2024-01-30T06:07:05;2.60;1.00
8557;DHT22;4316;53.840;10.762;2024-01-30T06:09:31;2.70;1.00
8557;DHT22;4316;53.840;10.762;2024-01-30T06:11:57;2.80;1.00
8557;DHT22;4316;53.840;10.762;2024-01-30T06:14:23;2.70;1.00
8557;DHT22;4316;53.840;10.762;2024-01-30T06:16:49;2.70;1.00
8557;DHT22;4316;53.840;10.762;2024-01-30T06:19:15;2.70;1.00
8557;DHT22;4316;53.840;10.762;2024-01-30T06:21:41;2.70;1.00
8557;DHT22;4316;53.840;10.762;2024-01-30T06:24:06;2.70;1.00
8557;DHT22;4316;53.840;10.762;2024-01-30T06:26:32;2.70;1.00
8557;DHT22;4316;53.840;10.762;2024-01-30T06:28:57;2.70;1.00
8557;DHT22;4316;53.840;10.762;2024-01-30T06:31:23;2.60;1.00
8557;DHT22;4316;53.840;10.762;2024-01-30T06:33:49;2.70;1.00
8557;DHT22;4316;53.840;10.762;2024-01-30T06:36:15;2.70;1.00
8557;DHT22;4316;53.840;10.762;2024-01-30T06:38:41;2.70;1.00
8557;DHT22;4316;53.840;10.762;2024-01-30T06:41:07;2.70;1.40
8557;DHT22;4316;53.840;10.762;2024-01-30T06:43:32;2.80;1.00
8557;DHT22;4316;53.840;10.762;2024-01-30T06:45:58;2.80;1.00
8557;DHT22;4316;53.840;10.762;2024-01-30T06:48:25;2.80;1.70
8557;DHT22;4316;53.840;10.762;2024-01-30T06:50:53;2.80;1.00
8557;DHT22;4316;53.840;10.762;2024-01-30T06:53:19;2.80;1.00
8557;DHT22;4316;53.840;10.762;2024-01-30T06:55:45;2.80;1.00
8557;DHT22;4316;53.840;10.762;2024-01-30T06:58:10;2.80;1.00
8557;DHT22;4316;53.840;10.762;2024-01-30T07:00:36;2.80;1.00
8557;DHT22;4316;53.840;10.762;2024-01-30T07:03:01;2.70;1.00
8557;DHT22;4316;53.840;10.762;2024-01-30T07:05:27;2.80;6.90
8557;DHT22;4316;53.840;10.762;2024-01-30T07:07:53;2.80;7.00
8557;DHT22;4316;53.840;10.762;2024-01-30T07:10:18;2.90;6.10
8557;DHT22;4316;53.840;10.762;2024-01-30T07:12:44;2.80;5.00
8557;DHT22;4316;53.840;10.762;2024-01-30T07:15:10;2.80;5.00
8557;DHT22;4316;53.840;10.762;2024-01-30T07:17:35;2.80;3.90
8557;DHT22;4316;53.840;10.762;2024-01-30T07:20:01;2.80;3.60
8557;DHT22;4316;53.840;10.762;2024-01-30T07:22:29;2.90;3.50
8557;DHT22;4316;53.840;10.762;2024-01-30T07:24:55;2.80;5.40
8557;DHT22;4316;53.840;10.762;2024-01-30T07:27:21;2.90;10.60
8557;DHT22;4316;53.840;10.762;2024-01-30T07:29:47;3.00;12.80
8557;DHT22;4316;53.840;10.762;2024-01-30T07:32:12;3.00;14.90
8557;DHT22;4316;53.840;10.762;2024-01-30T07:34:38;3.10;15.40
8557;DHT22;4316;53.840;10.762;2024-01-30T07:37:03;3.10;15.20
8557;DHT22;4316;53.840;10.762;2024-01-30T07:39:29;3.10;15.40
8557;DHT22;4316;53.840;10.762;2024-01-30T07:41:54;3.10;16.00
8557;DHT22;4316;53.840;10.762;2024-01-30T07:44:20;3.20;18.60
8557;DHT22;4316;53.840;10.762;2024-01-30T07:46:46;3.30;20.50
8557;DHT22;4316;53.840;10.762;2024-01-30T07:49:12;3.30;20.60
8557;DHT22;4316;53.840;10.762;2024-01-30T07:51:39;3.40;20.70
8557;DHT22;4316;53.840;10.762;2024-01-30T07:54:05;3.50;21.50
8557;DHT22;4316;53.840;10.762;2024-01-30T07:56:30;3.50;21.90
8557;DHT22;4316;53.840;10.762;2024-01-30T07:58:56;3.60;21.20
8557;DHT22;4316;53.840;10.762;2024-01-30T08:01:22;3.60;23.30
8557;DHT22;4316;53.840;10.762;2024-01-30T08:03:47;3.70;22.40
8557;DHT22;4316;53.840;10.762;2024-01-30T08:06:13;3.70;21.70
8557;DHT22;4316;53.840;10.762;2024-01-30T08:08:38;3.70;23.80
8557;DHT22;4316;53.840;10.762;2024-01-30T08:11:04;3.80;23.70
8557;DHT22;4316;53.840;10.762;2024-01-30T08:13:30;3.90;24.10
8557;DHT22;4316;53.840;10.762;2024-01-30T08:15:56;3.90;24.40
8557;DHT22;4316;53.840;10.762;2024-01-30T08:18:21;4.00;27.80
8557;DHT22;4316;53.840;10.762;2024-01-30T08:20:47;4.00;26.40
8557;DHT22;4316;53.840;10.762;2024-01-30T08:23:12;4.10;25.50
8557;DHT22;4316;53.840;10.762;2024-01-30T08:25:38;4.10;25.80
8557;DHT22;4316;53.840;10.762;2024-01-30T08:28:04;4.20;25.90
8557;DHT22;4316;53.840;10.762;2024-01-30T08:30:29;4.20;25.90
8557;DHT22;4316;53.840;10.762;2024-01-30T08:32:55;4.30;27.50
8557;DHT22;4316;53.840;10.762;2024-01-30T08:35:20;4.40;24.20
8557;DHT22;4316;53.840;10.762;2024-01-30T08:37:46;4.40;25.10
8557;DHT22;4316;53.840;10.762;2024-01-30T08:40:11;4.50;25.70
8557;DHT22;4316;53.840;10.762;2024-01-30T08:42:37;4.50;25.80
8557;DHT22;4316;53.840;10.762;2024-01-30T08:45:03;4.60;28.70
8557;DHT22;4316;53.840;10.762;2024-01-30T08:47:30;4.60;26.10
8557;DHT22;4316;53.840;10.762;2024-01-30T08:49:55;4.70;25.90
8557;DHT22;4316;53.840;10.762;2024-01-30T08:52:21;4.70;26.10
8557;DHT22;4316;53.840;10.762;2024-01-30T08:54:47;4.80;25.80
8557;DHT22;4316;53.840;10.762;2024-01-30T08:57:12;4.90;24.80
8557;DHT22;4316;53.840;10.762;2024-01-30T08:59:38;4.90;24.80
8557;DHT22;4316;53.840;10.762;2024-01-30T09:02:03;5.00;23.00
8557;DHT22;4316;53.840;10.762;2024-01-30T09:04:30;5.10;22.20
8557;DHT22;4316;53.840;10.762;2024-01-30T09:06:55;5.20;20.60
8557;DHT22;4316;53.840;10.762;2024-01-30T09:09:21;5.20;18.60
8557;DHT22;4316;53.840;10.762;2024-01-30T09:11:47;5.30;19.00
8557;DHT22;4316;53.840;10.762;2024-01-30T09:14:12;5.40;17.80
8557;DHT22;4316;53.840;10.762;2024-01-30T09:16:38;5.40;14.40
8557;DHT22;4316;53.840;10.762;2024-01-30T09:19:04;5.50;15.00
8557;DHT22;4316;53.840;10.762;2024-01-30T09:21:30;5.60;12.50
8557;DHT22;4316;53.840;10.762;2024-01-30T09:24:02;5.80;12.20
8557;DHT22;4316;53.840;10.762;2024-01-30T09:26:28;6.20;10.10
8557;DHT22;4316;53.840;10.762;2024-01-30T09:28:53;6.60;2.80
8557;DHT22;4316;53.840;10.762;2024-01-30T09:31:19;7.00;8.30
8557;DHT22;4316;53.840;10.762;2024-01-30T09:33:45;7.30;1.00
8557;DHT22;4316;53.840;10.762;2024-01-30T09:36:12;7.40;1.00
8557;DHT22;4316;53.840;10.762;2024-01-30T09:38:40;7.50;1.00
8557;DHT22;4316;53.840;10.762;2024-01-30T09:41:09;7.60;1.00
8557;DHT22;4316;53.840;10.762;2024-01-30T09:43:38;7.70;1.00
8557;DHT22;4316;53.840;10.762;2024-01-30T09:46:11;7.90;1.00
8557;DHT22;4316;53.840;10.762;2024-01-30T09:48:39;7.90;1.00
8557;DHT22;4316;53.840;10.762;2024-01-30T09:51:06;8.00;1.00
8557;DHT22;4316;53.840;10.762;2024-01-30T09:53:32;8.20;1.00
8557;DHT22;4316;53.840;10.762;2024-01-30T09:55:58;8.40;1.00
8557;DHT22;4316;53.840;10.762;2024-01-30T09:58:24;8.50;1.00
8557;DHT22;4316;53.840;10.762;2024-01-30T10:00:49;8.80;1.00
8557;DHT22;4316;53.840;10.762;2024-01-30T10:03:15;9.00;1.00
8557;DHT22;4316;53.840;10.762;2024-01-30T10:05:40;9.10;1.00
8557;DHT22;4316;53.840;10.762;2024-01-30T10:08:07;8.80;1.00
8557;DHT22;4316;53.840;10.762;2024-01-30T10:10:35;8.70;1.00
8557;DHT22;4316;53.840;10.762;2024-01-30T10:13:01;8.60;1.00
8557;DHT22;4316;53.840;10.762;2024-01-30T10:15:28;8.70;1.00
8557;DHT22;4316;53.840;10.762;2024-01-30T10:17:54;8.70;1.00
8557;DHT22;4316;53.840;10.762;2024-01-30T10:20:20;8.60;1.00
8557;DHT22;4316;53.840;10.762;2024-01-30T10:22:48;8.50;1.00
8557;DHT22;4316;53.840;10.762;2024-01-30T10:25:15;8.40;1.00
8557;DHT22;4316;53.840;10.762;2024-01-30T10:27:40;8.20;1.00
8557;DHT22;4316;53.840;10.762;2024-01-30T10:30:07;8.10;1.00
8557;DHT22;4316;53.840;10.762;2024-01-30T10:32:33;8.10;1.00
8557;DHT22;4316;53.840;10.762;2024-01-30T10:34:58;8.10;1.00
8557;DHT22;4316;53.840;10.762;2024-01-30T10:37:28;8.00;1.00
8557;DHT22;4316;53.840;10.762;2024-01-30T10:40:02;8.20;1.00
8557;DHT22;4316;53.840;10.762;2024-01-30T10:42:31;8.40;1.00
8557;DHT22;4316;53.840;10.762;2024-01-30T10:45:06;8.50;1.00
8557;DHT22;4316;53.840;10.762;2024-01-30T10:47:35;8.50;1.00
8557;DHT22;4316;53.840;10.762;2024-01-30T10:50:02;8.40;1.00
8557;DHT22;4316;53.840;10.762;2024-01-30T10:52:29;8.50;1.00
8557;DHT22;4316;53.840;10.762;2024-01-30T10:54:55;8.60;1.00
8557;DHT22;4316;53.840;10.762;2024-01-30T10:57:25;8.60;1.00
8557;DHT22;4316;53.840;10.762;2024-01-30T11:00:00;8.50;1.00
8557;DHT22;4316;53.840;10.762;2024-01-30T11:02:27;8.40;1.00
8557;DHT22;4316;53.840;10.762;2024-01-30T11:04:59;8.20;1.00
8557;DHT22;4316;53.840;10.762;2024-01-30T11:07:27;8.20;1.00
8557;DHT22;4316;53.840;10.762;2024-01-30T11:09:59;8.20;1.00
8557;DHT22;4316;53.840;10.762;2024-01-30T11:12:29;8.20;1.00
8557;DHT22;4316;53.840;10.762;2024-01-30T11:15:08;8.10;1.00
8557;DHT22;4316;53.840;10.762;2024-01-30T11:20:20;8.20;1.00
8557;DHT22;4316;53.840;10.762;2024-01-30T11:22:47;8.20;1.00
8557;DHT22;4316;53.840;10.762;2024-01-30T11:25:14;8.30;1.00
8557;DHT22;4316;53.840;10.762;2024-01-30T11:27:41;8.30;1.00
8557;DHT22;4316;53.840;10.762;2024-01-30T11:30:08;8.40;1.00
8557;DHT22;4316;53.840;10.762;2024-01-30T11:32:33;8.50;1.00
8557;DHT22;4316;53.840;10.762;2024-01-30T11:34:59;8.50;1.00
8557;DHT22;4316;53.840;10.762;2024-01-30T11:37:28;8.50;1.00
8557;DHT22;4316;53.840;10.762;2024-01-30T11:39:56;8.60;1.00
8557;DHT22;4316;53.840;10.762;2024-01-30T11:42:23;8.60;1.00
8557;DHT22;4316;53.840;10.762;2024-01-30T11:44:50;8.60;1.00
8557;DHT22;4316;53.840;10.762;2024-01-30T11:47:16;8.50;1.00
8557;DHT22;4316;53.840;10.762;2024-01-30T11:49:43;8.50;1.00
8557;DHT22;4316;53.840;10.762;2024-01-30T11:52:09;8.50;1.00
8557;DHT22;4316;53.840;10.762;2024-01-30T11:54:35;8.50;1.00
8557;DHT22;4316;53.840;10.762;2024-01-30T11:57:01;8.50;1.00
8557;DHT22;4316;53.840;10.762;2024-01-30T11:59:26;8.60;1.00
8557;DHT22;4316;53.840;10.762;2024-01-30T12:01:52;8.50;1.00
8557;DHT22;4316;53.840;10.762;2024-01-30T12:04:18;8.60;1.00
8557;DHT22;4316;53.840;10.762;2024-01-30T12:06:43;8.60;1.00
8557;DHT22;4316;53.840;10.762;2024-01-30T12:09:10;8.60;1.00
8557;DHT22;4316;53.840;10.762;2024-01-30T12:11:44;8.60;1.00
8557;DHT22;4316;53.840;10.762;2024-01-30T12:14:11;8.60;1.00
8557;DHT22;4316;53.840;10.762;2024-01-30T12:16:37;8.70;1.00
8557;DHT22;4316;53.840;10.762;2024-01-30T12:19:02;8.70;1.00
8557;DHT22;4316;53.840;10.762;2024-01-30T12:21:29;8.70;1.00
8557;DHT22;4316;53.840;10.762;2024-01-30T12:23:55;8.70;1.00
8557;DHT22;4316;53.840;10.762;2024-01-30T12:26:21;8.80;1.00
8557;DHT22;4316;53.840;10.762;2024-01-30T12:28:50;8.80;1.00
8557;DHT22;4316;53.840;10.762;2024-01-30T12:31:16;8.80;1.00
8557;DHT22;4316;53.840;10.762;2024-01-30T12:33:42;8.80;1.00
8557;DHT22;4316;53.840;10.762;2024-01-30T12:36:07;8.80;1.00
8557;DHT22;4316;53.840;10.762;2024-01-30T12:38:33;8.80;1.00
8557;DHT22;4316;53.840;10.762;2024-01-30T12:40:58;8.80;1.00
8557;DHT22;4316;53.840;10.762;2024-01-30T12:43:25;8.80;1.00
8557;DHT22;4316;53.840;10.762;2024-01-30T12:45:52;8.80;1.00
8557;DHT22;4316;53.840;10.762;2024-01-30T12:48:18;8.80;1.00
8557;DHT22;4316;53.840;10.762;2024-01-30T12:50:43;8.80;1.00
8557;DHT22;4316;53.840;10.762;2024-01-30T12:53:09;8.80;1.00
8557;DHT22;4316;53.840;10.762;2024-01-30T12:55:35;8.80;1.00
8557;DHT22;4316;53.840;10.762;2024-01-30T12:58:00;8.90;1.00
8557;DHT22;4316;53.840;10.762;2024-01-30T13:00:26;8.80;1.00
8557;DHT22;4316;53.840;10.762;2024-01-30T13:02:52;8.80;1.00
8557;DHT22;4316;53.840;10.762;2024-01-30T13:05:18;8.80;1.00
8557;DHT22;4316;53.840;10.762;2024-01-30T13:07:44;8.80;1.00
8557;DHT22;4316;53.840;10.762;2024-01-30T13:10:09;8.80;1.00
8557;DHT22;4316;53.840;10.762;2024-01-30T13:12:35;8.80;1.00
8557;DHT22;4316;53.840;10.762;2024-01-30T13:15:01;8.80;1.00
8557;DHT22;4316;53.840;10.762;2024-01-30T13:17:27;8.80;1.00
8557;DHT22;4316;53.840;10.762;2024-01-30T13:19:53;8.80;1.00
8557;DHT22;4316;53.840;10.762;2024-01-30T13:22:20;8.90;1.00
8557;DHT22;4316;53.840;10.762;2024-01-30T13:24:48;8.90;1.00
8557;DHT22;4316;53.840;10.762;2024-01-30T13:27:14;8.90;1.00
8557;DHT22;4316;53.840;10.762;2024-01-30T13:29:40;8.90;1.00
8557;DHT22;4316;53.840;10.762;2024-01-30T13:32:06;9.00;1.00
8557;DHT22;4316;53.840;10.762;2024-01-30T13:34:31;9.00;1.00
8557;DHT22;4316;53.840;10.762;2024-01-30T13:36:57;9.00;1.00
8557;DHT22;4316;53.840;10.762;2024-01-30T13:39:23;9.00;1.00
8557;DHT22;4316;53.840;10.762;2024-01-30T13:41:49;9.00;1.00
8557;DHT22;4316;53.840;10.762;2024-01-30T13:44:16;9.00;1.00
8557;DHT22;4316;53.840;10.762;2024-01-30T13:46:43;9.00;1.00
8557;DHT22;4316;53.840;10.762;2024-01-30T13:49:08;9.00;1.00
8557;DHT22;4316;53.840;10.762;2024-01-30T13:51:34;9.10;1.00
8557;DHT22;4316;53.840;10.762;2024-01-30T13:53:59;9.00;1.00
8557;DHT22;4316;53.840;10.762;2024-01-30T13:56:25;9.10;1.00
8557;DHT22;4316;53.840;10.762;2024-01-30T13:58:52;9.00;1.00
8557;DHT22;4316;53.840;10.762;2024-01-30T14:01:18;9.10;1.00
8557;DHT22;4316;53.840;10.762;2024-01-30T14:03:44;9.10;1.00
8557;DHT22;4316;53.840;10.762;2024-01-30T14:06:11;9.10;1.00
8557;DHT22;4316;53.840;10.762;2024-01-30T14:08:37;9.10;1.00
8557;DHT22;4316;53.840;10.762;2024-01-30T14:11:02;9.10;1.00
8557;DHT22;4316;53.840;10.762;2024-01-30T14:13:29;9.10;1.00
8557;DHT22;4316;53.840;10.762;2024-01-30T14:15:56;9.10;1.00
8557;DHT22;4316;53.840;10.762;2024-01-30T14:18:22;9.10;1.00
8557;DHT22;4316;53.840;10.762;2024-01-30T14:20:47;9.10;1.00
8557;DHT22;4316;53.840;10.762;2024-01-30T14:23:13;9.10;1.00
8557;DHT22;4316;53.840;10.762;2024-01-30T14:25:38;9.20;1.00
8557;DHT22;4316;53.840;10.762;2024-01-30T14:28:04;9.20;1.00
8557;DHT22;4316;53.840;10.762;2024-01-30T14:30:30;9.20;1.00
8557;DHT22;4316;53.840;10.762;2024-01-30T14:32:56;9.20;1.00
8557;DHT22;4316;53.840;10.762;2024-01-30T14:35:21;9.20;1.00
8557;DHT22;4316;53.840;10.762;2024-01-30T14:37:47;9.20;1.00
8557;DHT22;4316;53.840;10.762;2024-01-30T14:40:12;9.20;1.00
8557;DHT22;4316;53.840;10.762;2024-01-30T14:42:38;9.20;1.00
8557;DHT22;4316;53.840;10.762;2024-01-30T14:45:05;9.20;1.00
8557;DHT22;4316;53.840;10.762;2024-01-30T14:47:31;9.20;1.00
8557;DHT22;4316;53.840;10.762;2024-01-30T14:49:57;9.20;1.00
8557;DHT22;4316;53.840;10.762;2024-01-30T14:52:23;9.20;1.00
8557;DHT22;4316;53.840;10.762;2024-01-30T14:54:49;9.20;1.00
8557;DHT22;4316;53.840;10.762;2024-01-30T14:57:15;9.20;1.00
8557;DHT22;4316;53.840;10.762;2024-01-30T14:59:40;9.30;1.00
8557;DHT22;4316;53.840;10.762;2024-01-30T15:02:06;9.30;1.00
8557;DHT22;4316;53.840;10.762;2024-01-30T15:04:32;9.30;1.00
8557;DHT22;4316;53.840;10.762;2024-01-30T15:06:57;9.30;1.00
8557;DHT22;4316;53.840;10.762;2024-01-30T15:09:23;9.30;1.00
8557;DHT22;4316;53.840;10.762;2024-01-30T15:11:52;9.30;1.00
8557;DHT22;4316;53.840;10.762;2024-01-30T15:14:17;9.30;1.00
8557;DHT22;4316;53.840;10.762;2024-01-30T15:16:43;9.30;1.00
8557;DHT22;4316;53.840;10.762;2024-01-30T15:19:09;9.30;1.00
8557;DHT22;4316;53.840;10.762;2024-01-30T15:21:34;9.30;1.00
8557;DHT22;4316;53.840;10.762;2024-01-30T15:24:00;9.20;1.00
8557;DHT22;4316;53.840;10.762;2024-01-30T15:26:26;9.20;1.00
8557;DHT22;4316;53.840;10.762;2024-01-30T15:28:51;9.20;1.00
8557;DHT22;4316;53.840;10.762;2024-01-30T15:31:17;9.20;1.00
8557;DHT22;4316;53.840;10.762;2024-01-30T15:33:43;9.30;1.00
8557;DHT22;4316;53.840;10.762;2024-01-30T15:36:08;9.20;1.00
8557;DHT22;4316;53.840;10.762;2024-01-30T15:38:35;9.10;1.00
8557;DHT22;4316;53.840;10.762;2024-01-30T15:41:01;9.00;1.00
8557;DHT22;4316;53.840;10.762;2024-01-30T15:43:27;9.10;1.00
8557;DHT22;4316;53.840;10.762;2024-01-30T15:45:53;9.10;1.00
8557;DHT22;4316;53.840;10.762;2024-01-30T15:48:19;9.10;1.00
8557;DHT22;4316;53.840;10.762;2024-01-30T15:50:45;9.20;1.00
8557;DHT22;4316;53.840;10.762;2024-01-30T15:53:11;9.30;1.00
8557;DHT22;4316;53.840;10.762;2024-01-30T15:55:36;9.30;1.00
8557;DHT22;4316;53.840;10.762;2024-01-30T15:58:03;9.20;1.00
8557;DHT22;4316;53.840;10.762;2024-01-30T16:00:29;9.20;1.00
8557;DHT22;4316;53.840;10.762;2024-01-30T16:02:55;9.20;1.00
8557;DHT22;4316;53.840;10.762;2024-01-30T16:05:22;9.20;1.00
8557;DHT22;4316;53.840;10.762;2024-01-30T16:07:48;9.20;1.00
8557;DHT22;4316;53.840;10.762;2024-01-30T16:10:13;9.20;1.00
8557;DHT22;4316;53.840;10.762;2024-01-30T16:12:42;9.30;1.00